sensor_id;sensor_type;location;lat;lon;timestamp;P1;durP1;ratioP1;P2;durP2;ratioP2
37065;SDS011;22981;43.080;25.550;2023-03-13T00:01:17;8.03;;;5.25;;
37065;SDS011;22981;43.080;25.550;2023-03-13T00:03:52;6.30;;;5.28;;
37065;SDS011;22981;43.080;25.550;2023-03-13T00:06:21;12.43;;;8.48;;
37065;SDS011;22981;43.080;25.550;2023-03-13T00:08:51;8.63;;;7.10;;
37065;SDS011;22981;43.080;25.550;2023-03-13T00:11:19;10.32;;;7.35;;
37065;SDS011;22981;43.080;25.550;2023-03-13T00:13:47;12.53;;;8.10;;
37065;SDS011;22981;43.080;25.550;2023-03-13T00:16:16;11.65;;;8.25;;
37065;SDS011;22981;43.080;25.550;2023-03-13T00:18:44;12.05;;;8.30;;
37065;SDS011;22981;43.080;25.550;2023-03-13T00:21:13;11.93;;;8.23;;
37065;SDS011;22981;43.080;25.550;2023-03-13T00:23:41;10.78;;;8.10;;
37065;SDS011;22981;43.080;25.550;2023-03-13T00:26:10;10.82;;;7.78;;
37065;SDS011;22981;43.080;25.550;2023-03-13T00:28:40;10.48;;;7.25;;
37065;SDS011;22981;43.080;25.550;2023-03-13T00:31:15;10.05;;;7.15;;
37065;SDS011;22981;43.080;25.550;2023-03-13T00:33:45;8.93;;;7.05;;
37065;SDS011;22981;43.080;25.550;2023-03-13T00:36:20;8.50;;;6.60;;
37065;SDS011;22981;43.080;25.550;2023-03-13T00:38:45;9.55;;;6.83;;
37065;SDS011;22981;43.080;25.550;2023-03-13T00:41:14;10.58;;;7.22;;
37065;SDS011;22981;43.080;25.550;2023-03-13T00:43:43;9.05;;;7.00;;
37065;SDS011;22981;43.080;25.550;2023-03-13T00:46:13;11.85;;;7.50;;
37065;SDS011;22981;43.080;25.550;2023-03-13T00:48:42;8.35;;;6.72;;
37065;SDS011;22981;43.080;25.550;2023-03-13T00:51:09;8.70;;;7.15;;
37065;SDS011;22981;43.080;25.550;2023-03-13T00:53:37;9.43;;;7.20;;
37065;SDS011;22981;43.080;25.550;2023-03-13T00:56:06;8.25;;;7.28;;
37065;SDS011;22981;43.080;25.550;2023-03-13T00:58:39;9.05;;;6.87;;
37065;SDS011;22981;43.080;25.550;2023-03-13T01:01:12;8.23;;;7.37;;
37065;SDS011;22981;43.080;25.550;2023-03-13T01:03:42;10.00;;;8.25;;
37065;SDS011;22981;43.080;25.550;2023-03-13T01:06:13;12.43;;;7.62;;
37065;SDS011;22981;43.080;25.550;2023-03-13T01:08:42;12.70;;;7.95;;
37065;SDS011;22981;43.080;25.550;2023-03-13T01:11:11;9.93;;;7.53;;
37065;SDS011;22981;43.080;25.550;2023-03-13T01:13:41;10.72;;;6.80;;
37065;SDS011;22981;43.080;25.550;2023-03-13T01:16:14;7.90;;;6.47;;
37065;SDS011;22981;43.080;25.550;2023-03-13T01:18:42;7.40;;;6.15;;
37065;SDS011;22981;43.080;25.550;2023-03-13T01:21:09;7.17;;;5.87;;
37065;SDS011;22981;43.080;25.550;2023-03-13T01:23:38;6.45;;;5.40;;
37065;SDS011;22981;43.080;25.550;2023-03-13T01:26:06;8.30;;;6.97;;
37065;SDS011;22981;43.080;25.550;2023-03-13T01:28:34;7.60;;;6.30;;
37065;SDS011;22981;43.080;25.550;2023-03-13T01:31:15;9.25;;;6.25;;
37065;SDS011;22981;43.080;25.550;2023-03-13T01:33:45;10.00;;;6.97;;
37065;SDS011;22981;43.080;25.550;2023-03-13T01:36:14;7.53;;;6.67;;
37065;SDS011;22981;43.080;25.550;2023-03-13T01:38:46;7.70;;;6.40;;
37065;SDS011;22981;43.080;25.550;2023-03-13T01:41:17;8.93;;;6.87;;
37065;SDS011;22981;43.080;25.550;2023-03-13T01:43:46;8.55;;;7.17;;
37065;SDS011;22981;43.080;25.550;2023-03-13T01:46:15;8.33;;;6.40;;
37065;SDS011;22981;43.080;25.550;2023-03-13T01:53:56;6.17;;;5.42;;
37065;SDS011;22981;43.080;25.550;2023-03-13T01:56:29;7.67;;;6.28;;
37065;SDS011;22981;43.080;25.550;2023-03-13T01:59:00;7.00;;;5.35;;
37065;SDS011;22981;43.080;25.550;2023-03-13T02:01:30;7.58;;;6.78;;
37065;SDS011;22981;43.080;25.550;2023-03-13T02:03:58;10.58;;;7.85;;
37065;SDS011;22981;43.080;25.550;2023-03-13T02:06:27;8.35;;;7.15;;
37065;SDS011;22981;43.080;25.550;2023-03-13T02:08:58;8.73;;;6.70;;
37065;SDS011;22981;43.080;25.550;2023-03-13T02:11:34;9.98;;;6.75;;
37065;SDS011;22981;43.080;25.550;2023-03-13T02:14:18;7.15;;;6.00;;
37065;SDS011;22981;43.080;25.550;2023-03-13T02:16:48;5.90;;;5.22;;
37065;SDS011;22981;43.080;25.550;2023-03-13T02:19:18;6.47;;;5.40;;
37065;SDS011;22981;43.080;25.550;2023-03-13T02:24:38;6.92;;;5.55;;
37065;SDS011;22981;43.080;25.550;2023-03-13T02:27:10;8.13;;;6.37;;
37065;SDS011;22981;43.080;25.550;2023-03-13T02:29:37;11.85;;;7.58;;
37065;SDS011;22981;43.080;25.550;2023-03-13T02:32:06;13.38;;;8.45;;
37065;SDS011;22981;43.080;25.550;2023-03-13T02:34:34;9.83;;;7.35;;
37065;SDS011;22981;43.080;25.550;2023-03-13T02:37:05;8.40;;;6.72;;
37065;SDS011;22981;43.080;25.550;2023-03-13T02:39:38;9.85;;;7.37;;
37065;SDS011;22981;43.080;25.550;2023-03-13T02:42:10;11.90;;;7.08;;
37065;SDS011;22981;43.080;25.550;2023-03-13T02:44:40;6.75;;;5.83;;
37065;SDS011;22981;43.080;25.550;2023-03-13T02:47:09;6.95;;;5.45;;
37065;SDS011;22981;43.080;25.550;2023-03-13T02:49:37;6.03;;;5.42;;
37065;SDS011;22981;43.080;25.550;2023-03-13T02:52:17;5.97;;;5.28;;
37065;SDS011;22981;43.080;25.550;2023-03-13T02:54:54;7.33;;;6.25;;
37065;SDS011;22981;43.080;25.550;2023-03-13T02:57:18;15.23;;;9.95;;
37065;SDS011;22981;43.080;25.550;2023-03-13T02:59:46;15.20;;;10.28;;
37065;SDS011;22981;43.080;25.550;2023-03-13T03:02:13;13.95;;;10.10;;
37065;SDS011;22981;43.080;25.550;2023-03-13T03:04:41;14.13;;;10.15;;
37065;SDS011;22981;43.080;25.550;2023-03-13T03:07:09;16.40;;;11.15;;
37065;SDS011;22981;43.080;25.550;2023-03-13T03:09:36;15.13;;;10.18;;
37065;SDS011;22981;43.080;25.550;2023-03-13T03:12:04;13.65;;;9.30;;
37065;SDS011;22981;43.080;25.550;2023-03-13T03:14:32;13.50;;;7.83;;
37065;SDS011;22981;43.080;25.550;2023-03-13T03:16:59;14.83;;;10.30;;
37065;SDS011;22981;43.080;25.550;2023-03-13T03:19:27;12.63;;;9.55;;
37065;SDS011;22981;43.080;25.550;2023-03-13T03:21:54;13.13;;;9.25;;
37065;SDS011;22981;43.080;25.550;2023-03-13T03:24:22;9.78;;;7.72;;
37065;SDS011;22981;43.080;25.550;2023-03-13T03:26:50;14.55;;;7.87;;
37065;SDS011;22981;43.080;25.550;2023-03-13T03:29:17;9.93;;;7.65;;
37065;SDS011;22981;43.080;25.550;2023-03-13T03:31:45;7.67;;;6.50;;
37065;SDS011;22981;43.080;25.550;2023-03-13T03:34:12;8.20;;;6.87;;
37065;SDS011;22981;43.080;25.550;2023-03-13T03:36:40;9.40;;;7.35;;
37065;SDS011;22981;43.080;25.550;2023-03-13T03:39:07;8.40;;;7.40;;
37065;SDS011;22981;43.080;25.550;2023-03-13T03:41:35;9.23;;;6.97;;
37065;SDS011;22981;43.080;25.550;2023-03-13T03:44:03;9.63;;;7.12;;
37065;SDS011;22981;43.080;25.550;2023-03-13T03:46:31;10.48;;;7.58;;
37065;SDS011;22981;43.080;25.550;2023-03-13T03:48:58;10.72;;;7.67;;
37065;SDS011;22981;43.080;25.550;2023-03-13T03:51:26;13.93;;;8.78;;
37065;SDS011;22981;43.080;25.550;2023-03-13T03:53:53;30.05;;;19.92;;
37065;SDS011;22981;43.080;25.550;2023-03-13T03:56:21;45.40;;;33.00;;
37065;SDS011;22981;43.080;25.550;2023-03-13T03:58:48;44.42;;;28.90;;
37065;SDS011;22981;43.080;25.550;2023-03-13T04:01:16;40.90;;;27.27;;
37065;SDS011;22981;43.080;25.550;2023-03-13T04:03:43;38.28;;;21.40;;
37065;SDS011;22981;43.080;25.550;2023-03-13T04:06:12;19.35;;;12.60;;
37065;SDS011;22981;43.080;25.550;2023-03-13T04:08:40;14.65;;;10.65;;
37065;SDS011;22981;43.080;25.550;2023-03-13T04:11:07;16.12;;;9.93;;
37065;SDS011;22981;43.080;25.550;2023-03-13T04:13:35;13.83;;;9.50;;
37065;SDS011;22981;43.080;25.550;2023-03-13T04:16:06;160.82;;;83.33;;
37065;SDS011;22981;43.080;25.550;2023-03-13T04:18:34;150.85;;;74.95;;
37065;SDS011;22981;43.080;25.550;2023-03-13T04:21:03;66.45;;;36.68;;
37065;SDS011;22981;43.080;25.550;2023-03-13T04:23:31;34.18;;;21.42;;
37065;SDS011;22981;43.080;25.550;2023-03-13T04:25:58;52.25;;;28.50;;
37065;SDS011;22981;43.080;25.550;2023-03-13T04:28:26;49.77;;;30.97;;
37065;SDS011;22981;43.080;25.550;2023-03-13T04:30:53;34.60;;;20.95;;
37065;SDS011;22981;43.080;25.550;2023-03-13T04:33:23;29.30;;;19.92;;
37065;SDS011;22981;43.080;25.550;2023-03-13T04:35:50;28.73;;;20.20;;
37065;SDS011;22981;43.080;25.550;2023-03-13T04:38:18;29.80;;;19.45;;
37065;SDS011;22981;43.080;25.550;2023-03-13T04:40:45;16.32;;;12.40;;
37065;SDS011;22981;43.080;25.550;2023-03-13T04:43:13;14.53;;;10.48;;
37065;SDS011;22981;43.080;25.550;2023-03-13T04:45:41;16.67;;;10.93;;
37065;SDS011;22981;43.080;25.550;2023-03-13T04:48:08;24.60;;;20.15;;
37065;SDS011;22981;43.080;25.550;2023-03-13T04:50:36;13.40;;;10.72;;
37065;SDS011;22981;43.080;25.550;2023-03-13T04:53:04;15.63;;;9.73;;
37065;SDS011;22981;43.080;25.550;2023-03-13T04:55:31;9.20;;;7.72;;
37065;SDS011;22981;43.080;25.550;2023-03-13T04:57:59;10.50;;;7.83;;
37065;SDS011;22981;43.080;25.550;2023-03-13T05:00:26;18.30;;;13.88;;
37065;SDS011;22981;43.080;25.550;2023-03-13T05:02:54;25.45;;;19.10;;
37065;SDS011;22981;43.080;25.550;2023-03-13T05:05:21;22.40;;;17.60;;
37065;SDS011;22981;43.080;25.550;2023-03-13T05:07:49;23.62;;;17.75;;
37065;SDS011;22981;43.080;25.550;2023-03-13T05:10:16;24.77;;;18.40;;
37065;SDS011;22981;43.080;25.550;2023-03-13T05:12:44;27.22;;;19.55;;
37065;SDS011;22981;43.080;25.550;2023-03-13T05:15:12;25.95;;;19.15;;
37065;SDS011;22981;43.080;25.550;2023-03-13T05:17:39;48.58;;;39.05;;
37065;SDS011;22981;43.080;25.550;2023-03-13T05:20:07;19.80;;;15.72;;
37065;SDS011;22981;43.080;25.550;2023-03-13T05:22:36;25.77;;;17.37;;
37065;SDS011;22981;43.080;25.550;2023-03-13T05:25:04;17.27;;;10.72;;
37065;SDS011;22981;43.080;25.550;2023-03-13T05:27:31;14.45;;;10.63;;
37065;SDS011;22981;43.080;25.550;2023-03-13T05:29:59;12.20;;;9.13;;
37065;SDS011;22981;43.080;25.550;2023-03-13T05:32:27;16.02;;;10.03;;
37065;SDS011;22981;43.080;25.550;2023-03-13T05:34:54;18.17;;;12.65;;
37065;SDS011;22981;43.080;25.550;2023-03-13T05:37:22;16.55;;;12.03;;
37065;SDS011;22981;43.080;25.550;2023-03-13T05:39:49;21.23;;;16.20;;
37065;SDS011;22981;43.080;25.550;2023-03-13T05:42:17;27.40;;;21.97;;
37065;SDS011;22981;43.080;25.550;2023-03-13T05:44:44;24.30;;;18.40;;
37065;SDS011;22981;43.080;25.550;2023-03-13T05:47:12;27.48;;;21.45;;
37065;SDS011;22981;43.080;25.550;2023-03-13T05:49:41;22.87;;;18.73;;
37065;SDS011;22981;43.080;25.550;2023-03-13T05:52:09;24.70;;;17.07;;
37065;SDS011;22981;43.080;25.550;2023-03-13T05:54:36;15.40;;;11.93;;
37065;SDS011;22981;43.080;25.550;2023-03-13T05:57:04;14.05;;;10.88;;
37065;SDS011;22981;43.080;25.550;2023-03-13T05:59:31;12.45;;;9.58;;
37065;SDS011;22981;43.080;25.550;2023-03-13T06:01:59;13.65;;;10.80;;
37065;SDS011;22981;43.080;25.550;2023-03-13T06:04:27;15.20;;;12.55;;
37065;SDS011;22981;43.080;25.550;2023-03-13T06:06:54;16.15;;;12.73;;
37065;SDS011;22981;43.080;25.550;2023-03-13T06:09:22;13.68;;;11.08;;
37065;SDS011;22981;43.080;25.550;2023-03-13T06:11:49;15.80;;;11.33;;
37065;SDS011;22981;43.080;25.550;2023-03-13T06:14:17;13.65;;;10.32;;
37065;SDS011;22981;43.080;25.550;2023-03-13T06:16:44;16.42;;;11.20;;
37065;SDS011;22981;43.080;25.550;2023-03-13T06:19:12;14.25;;;11.50;;
37065;SDS011;22981;43.080;25.550;2023-03-13T06:21:40;25.23;;;21.70;;
37065;SDS011;22981;43.080;25.550;2023-03-13T06:24:08;13.03;;;9.83;;
37065;SDS011;22981;43.080;25.550;2023-03-13T06:26:35;13.13;;;9.78;;
37065;SDS011;22981;43.080;25.550;2023-03-13T06:29:03;13.58;;;10.72;;
37065;SDS011;22981;43.080;25.550;2023-03-13T06:31:31;16.55;;;10.93;;
37065;SDS011;22981;43.080;25.550;2023-03-13T06:33:58;14.25;;;10.65;;
37065;SDS011;22981;43.080;25.550;2023-03-13T06:36:26;17.25;;;9.63;;
37065;SDS011;22981;43.080;25.550;2023-03-13T06:38:53;11.48;;;9.83;;
37065;SDS011;22981;43.080;25.550;2023-03-13T06:41:21;17.48;;;11.38;;
37065;SDS011;22981;43.080;25.550;2023-03-13T06:43:49;15.15;;;11.18;;
37065;SDS011;22981;43.080;25.550;2023-03-13T06:46:17;10.82;;;9.63;;
37065;SDS011;22981;43.080;25.550;2023-03-13T06:48:47;15.65;;;9.85;;
37065;SDS011;22981;43.080;25.550;2023-03-13T06:51:17;13.50;;;9.43;;
37065;SDS011;22981;43.080;25.550;2023-03-13T06:53:46;15.60;;;9.63;;
37065;SDS011;22981;43.080;25.550;2023-03-13T06:56:14;12.05;;;8.05;;
37065;SDS011;22981;43.080;25.550;2023-03-13T06:58:41;11.12;;;7.62;;
37065;SDS011;22981;43.080;25.550;2023-03-13T07:01:11;12.63;;;7.33;;
37065;SDS011;22981;43.080;25.550;2023-03-13T07:03:40;9.25;;;7.67;;
37065;SDS011;22981;43.080;25.550;2023-03-13T07:06:08;12.28;;;9.55;;
37065;SDS011;22981;43.080;25.550;2023-03-13T07:08:37;9.75;;;7.17;;
37065;SDS011;22981;43.080;25.550;2023-03-13T07:11:06;7.92;;;6.45;;
37065;SDS011;22981;43.080;25.550;2023-03-13T07:13:35;8.63;;;7.62;;
37065;SDS011;22981;43.080;25.550;2023-03-13T07:16:04;11.12;;;7.55;;
37065;SDS011;22981;43.080;25.550;2023-03-13T07:18:34;8.48;;;7.12;;
37065;SDS011;22981;43.080;25.550;2023-03-13T07:21:03;7.25;;;5.45;;
37065;SDS011;22981;43.080;25.550;2023-03-13T07:23:31;7.72;;;6.00;;
37065;SDS011;22981;43.080;25.550;2023-03-13T07:26:01;10.68;;;8.03;;
37065;SDS011;22981;43.080;25.550;2023-03-13T07:28:33;9.65;;;6.80;;
37065;SDS011;22981;43.080;25.550;2023-03-13T07:31:07;6.95;;;5.70;;
37065;SDS011;22981;43.080;25.550;2023-03-13T07:33:43;6.83;;;6.12;;
37065;SDS011;22981;43.080;25.550;2023-03-13T07:36:11;6.58;;;5.47;;
37065;SDS011;22981;43.080;25.550;2023-03-13T07:38:40;6.65;;;5.67;;
37065;SDS011;22981;43.080;25.550;2023-03-13T07:41:10;6.90;;;5.00;;
37065;SDS011;22981;43.080;25.550;2023-03-13T07:43:41;5.70;;;5.10;;
37065;SDS011;22981;43.080;25.550;2023-03-13T07:46:10;5.08;;;4.35;;
37065;SDS011;22981;43.080;25.550;2023-03-13T07:48:39;6.42;;;4.67;;
37065;SDS011;22981;43.080;25.550;2023-03-13T07:51:13;7.40;;;5.33;;
37065;SDS011;22981;43.080;25.550;2023-03-13T07:53:42;5.85;;;4.47;;
37065;SDS011;22981;43.080;25.550;2023-03-13T07:56:12;4.17;;;3.77;;
37065;SDS011;22981;43.080;25.550;2023-03-13T07:58:42;4.45;;;3.77;;
37065;SDS011;22981;43.080;25.550;2023-03-13T08:01:11;4.67;;;3.50;;
37065;SDS011;22981;43.080;25.550;2023-03-13T08:03:40;5.90;;;3.70;;
37065;SDS011;22981;43.080;25.550;2023-03-13T08:06:09;3.75;;;3.42;;
37065;SDS011;22981;43.080;25.550;2023-03-13T08:08:39;4.97;;;3.40;;
37065;SDS011;22981;43.080;25.550;2023-03-13T08:11:08;5.40;;;3.87;;
37065;SDS011;22981;43.080;25.550;2023-03-13T08:13:37;4.97;;;4.25;;
37065;SDS011;22981;43.080;25.550;2023-03-13T08:16:06;6.05;;;4.10;;
37065;SDS011;22981;43.080;25.550;2023-03-13T08:18:36;6.80;;;4.25;;
37065;SDS011;22981;43.080;25.550;2023-03-13T08:21:11;5.15;;;4.08;;
37065;SDS011;22981;43.080;25.550;2023-03-13T08:23:35;5.12;;;4.10;;
37065;SDS011;22981;43.080;25.550;2023-03-13T08:26:04;5.42;;;4.87;;
37065;SDS011;22981;43.080;25.550;2023-03-13T08:28:34;4.42;;;3.92;;
37065;SDS011;22981;43.080;25.550;2023-03-13T08:31:06;5.47;;;4.90;;
37065;SDS011;22981;43.080;25.550;2023-03-13T08:33:38;8.70;;;6.67;;
37065;SDS011;22981;43.080;25.550;2023-03-13T08:36:15;5.92;;;3.62;;
37065;SDS011;22981;43.080;25.550;2023-03-13T08:38:44;4.65;;;3.98;;
37065;SDS011;22981;43.080;25.550;2023-03-13T08:41:13;6.87;;;3.98;;
37065;SDS011;22981;43.080;25.550;2023-03-13T08:43:43;6.40;;;4.00;;
37065;SDS011;22981;43.080;25.550;2023-03-13T08:46:11;4.22;;;3.83;;
37065;SDS011;22981;43.080;25.550;2023-03-13T08:48:39;6.40;;;4.60;;
37065;SDS011;22981;43.080;25.550;2023-03-13T08:51:10;4.45;;;3.98;;
37065;SDS011;22981;43.080;25.550;2023-03-13T08:53:40;5.12;;;3.55;;
37065;SDS011;22981;43.080;25.550;2023-03-13T08:56:12;4.85;;;4.45;;
37065;SDS011;22981;43.080;25.550;2023-03-13T08:58:41;4.78;;;4.37;;
37065;SDS011;22981;43.080;25.550;2023-03-13T09:01:10;5.20;;;4.08;;
37065;SDS011;22981;43.080;25.550;2023-03-13T09:03:39;8.85;;;5.10;;
37065;SDS011;22981;43.080;25.550;2023-03-13T09:06:08;6.17;;;4.92;;
37065;SDS011;22981;43.080;25.550;2023-03-13T09:08:36;6.25;;;5.10;;
37065;SDS011;22981;43.080;25.550;2023-03-13T09:11:06;5.08;;;4.42;;
37065;SDS011;22981;43.080;25.550;2023-03-13T09:13:37;5.90;;;4.35;;
37065;SDS011;22981;43.080;25.550;2023-03-13T09:16:07;5.20;;;4.30;;
37065;SDS011;22981;43.080;25.550;2023-03-13T09:18:36;6.03;;;4.90;;
37065;SDS011;22981;43.080;25.550;2023-03-13T09:21:05;5.10;;;4.60;;
37065;SDS011;22981;43.080;25.550;2023-03-13T09:23:35;5.55;;;5.03;;
37065;SDS011;22981;43.080;25.550;2023-03-13T09:26:03;10.90;;;5.65;;
37065;SDS011;22981;43.080;25.550;2023-03-13T09:28:32;4.55;;;3.70;;
37065;SDS011;22981;43.080;25.550;2023-03-13T09:33:40;6.95;;;6.17;;
37065;SDS011;22981;43.080;25.550;2023-03-13T09:36:09;10.25;;;6.78;;
37065;SDS011;22981;43.080;25.550;2023-03-13T09:38:37;8.35;;;5.37;;
37065;SDS011;22981;43.080;25.550;2023-03-13T09:46:37;6.55;;;4.20;;
37065;SDS011;22981;43.080;25.550;2023-03-13T09:49:20;5.08;;;4.00;;
37065;SDS011;22981;43.080;25.550;2023-03-13T09:51:43;6.60;;;3.70;;
37065;SDS011;22981;43.080;25.550;2023-03-13T09:56:56;3.95;;;3.50;;
37065;SDS011;22981;43.080;25.550;2023-03-13T10:02:18;4.37;;;3.70;;
37065;SDS011;22981;43.080;25.550;2023-03-13T10:04:50;3.92;;;3.58;;
37065;SDS011;22981;43.080;25.550;2023-03-13T10:07:19;5.47;;;3.22;;
37065;SDS011;22981;43.080;25.550;2023-03-13T10:09:47;3.72;;;2.50;;
37065;SDS011;22981;43.080;25.550;2023-03-13T10:12:26;2.67;;;2.42;;
37065;SDS011;22981;43.080;25.550;2023-03-13T10:17:39;3.37;;;3.07;;
37065;SDS011;22981;43.080;25.550;2023-03-13T10:25:40;3.40;;;3.10;;
37065;SDS011;22981;43.080;25.550;2023-03-13T10:28:15;3.70;;;3.12;;
37065;SDS011;22981;43.080;25.550;2023-03-13T10:30:35;3.98;;;2.70;;
37065;SDS011;22981;43.080;25.550;2023-03-13T10:35:37;3.67;;;3.27;;
37065;SDS011;22981;43.080;25.550;2023-03-13T10:38:11;3.40;;;3.10;;
37065;SDS011;22981;43.080;25.550;2023-03-13T10:40:40;3.60;;;2.37;;
37065;SDS011;22981;43.080;25.550;2023-03-13T10:43:27;3.22;;;2.30;;
37065;SDS011;22981;43.080;25.550;2023-03-13T10:45:44;3.05;;;2.10;;
37065;SDS011;22981;43.080;25.550;2023-03-13T10:48:13;2.10;;;2.00;;
37065;SDS011;22981;43.080;25.550;2023-03-13T10:50:44;3.33;;;2.70;;
37065;SDS011;22981;43.080;25.550;2023-03-13T10:56:11;3.20;;;2.90;;
37065;SDS011;22981;43.080;25.550;2023-03-13T10:58:45;3.47;;;2.80;;
37065;SDS011;22981;43.080;25.550;2023-03-13T11:01:24;4.60;;;3.22;;
37065;SDS011;22981;43.080;25.550;2023-03-13T11:03:55;5.28;;;4.47;;
37065;SDS011;22981;43.080;25.550;2023-03-13T11:06:27;5.80;;;4.47;;
37065;SDS011;22981;43.080;25.550;2023-03-13T11:09:03;5.65;;;4.35;;
37065;SDS011;22981;43.080;25.550;2023-03-13T11:11:42;5.72;;;4.72;;
37065;SDS011;22981;43.080;25.550;2023-03-13T11:14:22;5.65;;;4.33;;
37065;SDS011;22981;43.080;25.550;2023-03-13T11:16:55;5.40;;;4.60;;
37065;SDS011;22981;43.080;25.550;2023-03-13T11:27:32;7.53;;;3.95;;
37065;SDS011;22981;43.080;25.550;2023-03-13T11:41:13;6.53;;;3.80;;
37065;SDS011;22981;43.080;25.550;2023-03-13T11:49:25;4.22;;;3.35;;
37065;SDS011;22981;43.080;25.550;2023-03-13T12:00:35;4.58;;;3.00;;
37065;SDS011;22981;43.080;25.550;2023-03-13T12:05:48;3.47;;;3.17;;
37065;SDS011;22981;43.080;25.550;2023-03-13T12:08:29;3.47;;;3.17;;
37065;SDS011;22981;43.080;25.550;2023-03-13T12:11:05;4.83;;;3.00;;
37065;SDS011;22981;43.080;25.550;2023-03-13T12:13:35;3.20;;;2.90;;
37065;SDS011;22981;43.080;25.550;2023-03-13T12:16:12;3.35;;;2.92;;
37065;SDS011;22981;43.080;25.550;2023-03-13T12:18:38;3.50;;;3.00;;
37065;SDS011;22981;43.080;25.550;2023-03-13T12:26:41;3.65;;;2.95;;
37065;SDS011;22981;43.080;25.550;2023-03-13T12:29:45;6.17;;;3.87;;
37065;SDS011;22981;43.080;25.550;2023-03-13T12:32:18;4.03;;;2.80;;
37065;SDS011;22981;43.080;25.550;2023-03-13T12:43:16;4.00;;;2.67;;
37065;SDS011;22981;43.080;25.550;2023-03-13T12:57:09;3.95;;;2.45;;
37065;SDS011;22981;43.080;25.550;2023-03-13T12:59:42;4.30;;;2.87;;
37065;SDS011;22981;43.080;25.550;2023-03-13T13:02:18;3.62;;;2.50;;
37065;SDS011;22981;43.080;25.550;2023-03-13T13:04:46;3.90;;;2.87;;
37065;SDS011;22981;43.080;25.550;2023-03-13T13:12:41;2.70;;;2.42;;
37065;SDS011;22981;43.080;25.550;2023-03-13T13:15:14;2.70;;;2.47;;
37065;SDS011;22981;43.080;25.550;2023-03-13T13:21:18;3.50;;;2.30;;
37065;SDS011;22981;43.080;25.550;2023-03-13T13:23:32;4.95;;;3.42;;
37065;SDS011;22981;43.080;25.550;2023-03-13T13:26:49;3.65;;;2.02;;
37065;SDS011;22981;43.080;25.550;2023-03-13T13:28:58;2.90;;;2.20;;
37065;SDS011;22981;43.080;25.550;2023-03-13T13:37:01;4.83;;;2.20;;
37065;SDS011;22981;43.080;25.550;2023-03-13T13:39:44;4.72;;;2.50;;
37065;SDS011;22981;43.080;25.550;2023-03-13T13:47:45;3.98;;;2.00;;
37065;SDS011;22981;43.080;25.550;2023-03-13T13:50:16;3.80;;;2.12;;
37065;SDS011;22981;43.080;25.550;2023-03-13T13:52:46;2.77;;;2.33;;
37065;SDS011;22981;43.080;25.550;2023-03-13T13:58:23;3.12;;;2.20;;
37065;SDS011;22981;43.080;25.550;2023-03-13T14:00:59;2.65;;;1.95;;
37065;SDS011;22981;43.080;25.550;2023-03-13T14:03:30;2.20;;;2.00;;
37065;SDS011;22981;43.080;25.550;2023-03-13T14:06:01;4.87;;;2.20;;
37065;SDS011;22981;43.080;25.550;2023-03-13T14:08:36;2.80;;;2.30;;
37065;SDS011;22981;43.080;25.550;2023-03-13T14:13:40;2.95;;;2.10;;
37065;SDS011;22981;43.080;25.550;2023-03-13T14:16:21;4.15;;;2.12;;
37065;SDS011;22981;43.080;25.550;2023-03-13T14:18:51;2.75;;;2.20;;
37065;SDS011;22981;43.080;25.550;2023-03-13T14:21:22;2.60;;;1.98;;
37065;SDS011;22981;43.080;25.550;2023-03-13T14:23:51;2.70;;;1.92;;
37065;SDS011;22981;43.080;25.550;2023-03-13T14:26:22;2.15;;;1.95;;
37065;SDS011;22981;43.080;25.550;2023-03-13T14:28:53;3.80;;;1.80;;
37065;SDS011;22981;43.080;25.550;2023-03-13T14:33:59;2.40;;;1.70;;
37065;SDS011;22981;43.080;25.550;2023-03-13T14:36:29;2.92;;;2.12;;
37065;SDS011;22981;43.080;25.550;2023-03-13T14:38:58;2.08;;;1.87;;
37065;SDS011;22981;43.080;25.550;2023-03-13T14:44:04;3.15;;;1.98;;
37065;SDS011;22981;43.080;25.550;2023-03-13T14:46:34;2.80;;;1.90;;
37065;SDS011;22981;43.080;25.550;2023-03-13T14:49:08;3.65;;;2.47;;
37065;SDS011;22981;43.080;25.550;2023-03-13T14:51:40;4.00;;;1.90;;
37065;SDS011;22981;43.080;25.550;2023-03-13T14:57:15;2.20;;;1.90;;
37065;SDS011;22981;43.080;25.550;2023-03-13T14:59:46;3.45;;;2.10;;
37065;SDS011;22981;43.080;25.550;2023-03-13T15:02:21;3.22;;;1.90;;
37065;SDS011;22981;43.080;25.550;2023-03-13T15:07:28;3.40;;;2.10;;
37065;SDS011;22981;43.080;25.550;2023-03-13T15:10:22;3.70;;;1.82;;
37065;SDS011;22981;43.080;25.550;2023-03-13T15:12:51;2.75;;;2.12;;
37065;SDS011;22981;43.080;25.550;2023-03-13T15:15:19;2.75;;;1.85;;
37065;SDS011;22981;43.080;25.550;2023-03-13T15:17:46;3.35;;;1.60;;
37065;SDS011;22981;43.080;25.550;2023-03-13T15:20:15;4.17;;;1.67;;
37065;SDS011;22981;43.080;25.550;2023-03-13T15:22:43;2.80;;;2.08;;
37065;SDS011;22981;43.080;25.550;2023-03-13T15:25:18;3.17;;;2.17;;
37065;SDS011;22981;43.080;25.550;2023-03-13T15:27:48;2.22;;;2.00;;
37065;SDS011;22981;43.080;25.550;2023-03-13T15:30:18;3.30;;;2.65;;
37065;SDS011;22981;43.080;25.550;2023-03-13T15:32:48;7.83;;;2.50;;
37065;SDS011;22981;43.080;25.550;2023-03-13T15:35:21;2.75;;;1.98;;
37065;SDS011;22981;43.080;25.550;2023-03-13T15:37:56;3.37;;;2.08;;
37065;SDS011;22981;43.080;25.550;2023-03-13T15:40:25;5.87;;;2.17;;
37065;SDS011;22981;43.080;25.550;2023-03-13T15:42:55;2.47;;;2.05;;
37065;SDS011;22981;43.080;25.550;2023-03-13T15:45:23;5.95;;;2.05;;
37065;SDS011;22981;43.080;25.550;2023-03-13T15:47:51;1.55;;;1.37;;
37065;SDS011;22981;43.080;25.550;2023-03-13T15:50:19;1.85;;;1.60;;
37065;SDS011;22981;43.080;25.550;2023-03-13T15:52:51;2.75;;;1.90;;
37065;SDS011;22981;43.080;25.550;2023-03-13T15:55:20;4.25;;;1.82;;
37065;SDS011;22981;43.080;25.550;2023-03-13T15:57:48;4.85;;;2.22;;
37065;SDS011;22981;43.080;25.550;2023-03-13T16:00:20;3.12;;;2.40;;
37065;SDS011;22981;43.080;25.550;2023-03-13T16:02:49;4.58;;;2.30;;
37065;SDS011;22981;43.080;25.550;2023-03-13T16:05:17;3.52;;;2.40;;
37065;SDS011;22981;43.080;25.550;2023-03-13T16:07:45;6.08;;;3.77;;
37065;SDS011;22981;43.080;25.550;2023-03-13T16:10:18;10.15;;;8.80;;
37065;SDS011;22981;43.080;25.550;2023-03-13T16:12:46;5.53;;;4.65;;
37065;SDS011;22981;43.080;25.550;2023-03-13T16:15:13;7.87;;;4.33;;
37065;SDS011;22981;43.080;25.550;2023-03-13T16:17:41;10.15;;;5.87;;
37065;SDS011;22981;43.080;25.550;2023-03-13T16:20:19;11.50;;;6.72;;
37065;SDS011;22981;43.080;25.550;2023-03-13T16:22:49;9.13;;;5.80;;
37065;SDS011;22981;43.080;25.550;2023-03-13T16:25:17;10.90;;;5.80;;
37065;SDS011;22981;43.080;25.550;2023-03-13T16:27:45;9.93;;;5.30;;
37065;SDS011;22981;43.080;25.550;2023-03-13T16:30:16;13.65;;;7.37;;
37065;SDS011;22981;43.080;25.550;2023-03-13T16:32:46;21.27;;;14.45;;
37065;SDS011;22981;43.080;25.550;2023-03-13T16:35:13;14.73;;;10.60;;
37065;SDS011;22981;43.080;25.550;2023-03-13T16:37:42;22.17;;;16.17;;
37065;SDS011;22981;43.080;25.550;2023-03-13T16:40:18;28.83;;;17.55;;
37065;SDS011;22981;43.080;25.550;2023-03-13T16:42:44;21.48;;;16.12;;
37065;SDS011;22981;43.080;25.550;2023-03-13T16:45:12;46.02;;;41.05;;
37065;SDS011;22981;43.080;25.550;2023-03-13T16:47:40;14.73;;;9.73;;
37065;SDS011;22981;43.080;25.550;2023-03-13T16:50:32;6.85;;;5.95;;
37065;SDS011;22981;43.080;25.550;2023-03-13T16:52:49;7.95;;;6.20;;
37065;SDS011;22981;43.080;25.550;2023-03-13T16:55:17;19.37;;;13.83;;